Apple River, Illinois
Current Conditions -  °F | °C
As of 3:35 AM on Sunday 23 Nov 2014 (Local Time) from KPVB Reporting Station
Overcast Overcast  
Wind Chill: 43°   Ceiling: 200
Heat Index: 49°   Visibility: 3mi
Dew Point: 48°   Wind: 14mph
Humidity: 97%   Direction: 170°S
Pressure: 29.67"   Gusts: NA
Location:  42.51°N, 90.1°W
Report Text: KPVB 230935Z AUTO 17012KT 3SM OVC002 09/09 A2967 RMK AO1 T00930089
Loading
Personal Weather Stations






























Interactive Weather Map New forecast layout! Learn more

10-Day Weather Forecast

Advertisements
Track Severe Weather on mobile